Time,TemperatureF,DewpointF,PressureIn,WindDirection,WindDirectionDegrees,WindSpeedMPH,WindSpeedGustMPH,Humidity,HourlyPrecipIn,Conditions,Clouds,dailyrainin,SoftwareType,DateUTC
2013-07-10 00:00:00,73.2,71.5,30.09,West,273,0.0,0.0,93,0.00,,,0.00,dv,2013-07-10 04:00:00,
2013-07-10 00:05:00,73.1,71.4,30.10,West,273,0.0,0.0,93,0.00,,,0.00,dv,2013-07-10 04:05:00,
2013-07-10 00:10:00,73.0,71.3,30.10,West,274,0.0,0.0,93,0.00,,,0.00,dv,2013-07-10 04:10:00,
2013-07-10 00:15:00,73.1,71.4,30.10,West,273,0.0,0.0,93,0.00,,,0.00,dv,2013-07-10 04:15:00,
2013-07-10 00:20:00,73.0,71.1,30.10,West,273,0.0,0.0,92,0.00,,,0.00,dv,2013-07-10 04:20:00,
2013-07-10 00:25:00,73.1,71.4,30.09,West,274,0.0,0.0,93,0.00,,,0.00,dv,2013-07-10 04:25:00,
2013-07-10 00:30:00,73.0,71.1,30.10,West,273,0.0,0.0,92,0.00,,,0.00,dv,2013-07-10 04:30:00,
2013-07-10 00:35:00,72.9,71.2,30.10,West,273,0.0,0.0,93,0.00,,,0.00,dv,2013-07-10 04:35:00,
2013-07-10 00:40:00,72.9,71.2,30.10,West,273,0.0,0.0,93,0.00,,,0.00,dv,2013-07-10 04:40:00,
2013-07-10 00:45:00,72.9,71.2,30.10,West,273,0.0,0.0,93,0.00,,,0.00,dv,2013-07-10 04:45:00,
2013-07-10 00:50:00,72.8,71.1,30.10,West,273,0.0,0.0,93,0.00,,,0.00,dv,2013-07-10 04:50:00,
2013-07-10 00:55:00,72.8,71.1,30.10,West,273,0.0,0.0,93,0.00,,,0.00,dv,2013-07-10 04:55:00,
2013-07-10 01:00:00,72.8,71.1,30.10,West,273,0.0,0.0,93,0.00,,,0.00,dv,2013-07-10 05:00:00,
2013-07-10 01:05:00,72.8,71.1,30.11,West,273,0.0,0.0,93,0.00,,,0.00,dv,2013-07-10 05:05:00,
2013-07-10 01:10:00,72.8,71.1,30.10,West,273,0.0,0.0,93,0.00,,,0.00,dv,2013-07-10 05:10:00,
2013-07-10 01:15:00,72.8,71.1,30.11,West,273,0.0,0.0,93,0.00,,,0.00,dv,2013-07-10 05:15:00,
2013-07-10 01:20:00,72.9,71.5,30.11,West,273,0.0,0.0,94,0.00,,,0.00,dv,2013-07-10 05:20:00,
2013-07-10 01:25:00,72.8,71.4,30.11,West,273,0.0,0.0,94,0.00,,,0.00,dv,2013-07-10 05:25:00,
2013-07-10 01:30:00,72.9,71.2,30.11,West,273,0.0,0.0,93,0.00,,,0.00,dv,2013-07-10 05:30:00,
2013-07-10 01:35:00,72.8,71.1,30.10,West,273,0.0,0.0,93,0.00,,,0.00,dv,2013-07-10 05:35:00,
2013-07-10 01:40:00,72.6,70.9,30.11,West,273,0.0,0.0,93,0.00,,,0.00,dv,2013-07-10 05:40:00,
2013-07-10 01:45:00,72.7,71.3,30.11,West,273,0.0,0.0,94,0.00,,,0.00,dv,2013-07-10 05:45:00,
2013-07-10 01:50:00,72.5,71.1,30.10,West,273,0.0,0.0,94,0.00,,,0.00,dv,2013-07-10 05:50:00,
2013-07-10 01:55:00,72.6,71.2,30.10,West,273,0.0,0.0,94,0.00,,,0.00,dv,2013-07-10 05:55:00,
2013-07-10 02:00:00,72.5,71.1,30.09,West,273,0.0,0.0,94,0.00,,,0.00,dv,2013-07-10 06:00:00,
2013-07-10 02:05:00,72.5,71.1,30.10,West,273,0.0,0.0,94,0.00,,,0.00,dv,2013-07-10 06:05:00,
2013-07-10 02:10:00,72.6,71.2,30.10,West,273,0.0,0.0,94,0.00,,,0.00,dv,2013-07-10 06:10:00,
2013-07-10 02:15:00,72.5,71.1,30.09,West,273,0.0,0.0,94,0.00,,,0.00,dv,2013-07-10 06:15:00,
2013-07-10 02:20:00,72.6,71.2,30.09,West,273,0.0,0.0,94,0.01,,,0.01,dv,2013-07-10 06:20:00,
2013-07-10 02:25:00,72.7,71.3,30.08,West,273,0.0,0.0,94,0.12,,,0.12,dv,2013-07-10 06:25:00,
2013-07-10 02:30:00,72.7,71.5,30.08,West,273,0.0,0.0,95,0.13,,,0.13,dv,2013-07-10 06:30:00,
2013-07-10 02:35:00,72.7,71.8,30.09,West,273,0.0,0.0,96,0.18,,,0.18,dv,2013-07-10 06:35:00,
2013-07-10 02:40:00,72.7,71.8,30.08,West,273,0.0,0.0,96,0.33,,,0.33,dv,2013-07-10 06:40:00,
2013-07-10 02:45:00,72.8,71.9,30.07,West,273,0.0,0.0,96,0.42,,,0.42,dv,2013-07-10 06:45:00,
2013-07-10 02:50:00,72.8,71.9,30.07,West,273,0.0,0.0,96,0.46,,,0.46,dv,2013-07-10 06:50:00,
2013-07-10 02:55:00,72.8,71.9,30.07,West,273,0.0,0.0,96,0.48,,,0.48,dv,2013-07-10 06:55:00,
2013-07-10 03:00:00,72.7,71.8,30.07,West,273,0.0,0.0,96,0.48,,,0.48,dv,2013-07-10 07:00:00,
2013-07-10 03:05:00,72.5,71.8,30.07,West,273,0.0,0.0,97,0.53,,,0.53,dv,2013-07-10 07:05:00,
2013-07-10 03:10:00,72.5,71.8,30.06,West,273,0.0,0.0,97,0.56,,,0.56,dv,2013-07-10 07:10:00,
2013-07-10 03:15:00,72.4,71.5,30.06,West,273,0.0,0.0,96,0.58,,,0.58,dv,2013-07-10 07:15:00,
2013-07-10 03:20:00,72.6,71.9,30.06,West,273,0.0,0.0,97,0.58,,,0.59,dv,2013-07-10 07:20:00,
2013-07-10 03:25:00,72.6,71.9,30.07,West,273,0.0,0.0,97,0.47,,,0.59,dv,2013-07-10 07:25:00,
2013-07-10 03:30:00,72.4,71.7,30.06,West,273,0.0,0.0,97,0.46,,,0.59,dv,2013-07-10 07:30:00,
2013-07-10 03:35:00,72.6,71.9,30.07,West,273,0.0,0.0,97,0.47,,,0.65,dv,2013-07-10 07:35:00,
2013-07-10 03:40:00,72.4,71.7,30.06,West,273,0.0,0.0,97,0.38,,,0.71,dv,2013-07-10 07:40:00,
2013-07-10 03:45:00,72.3,71.6,30.06,West,273,0.0,0.0,97,0.30,,,0.72,dv,2013-07-10 07:45:00,
2013-07-10 03:50:00,72.2,71.7,30.06,West,273,0.0,0.0,98,0.27,,,0.73,dv,2013-07-10 07:50:00,
2013-07-10 03:55:00,72.2,71.7,30.07,West,273,0.0,0.0,98,0.25,,,0.73,dv,2013-07-10 07:55:00,
2013-07-10 04:00:00,72.2,71.7,30.06,West,273,0.0,0.0,98,0.25,,,0.73,dv,2013-07-10 08:00:00,
2013-07-10 04:05:00,72.1,71.4,30.06,West,273,0.0,0.0,97,0.20,,,0.73,dv,2013-07-10 08:05:00,
2013-07-10 04:10:00,72.1,71.6,30.06,West,273,0.0,0.0,98,0.17,,,0.73,dv,2013-07-10 08:10:00,
2013-07-10 04:15:00,72.0,71.5,30.07,West,273,0.0,0.0,98,0.15,,,0.73,dv,2013-07-10 08:15:00,
2013-07-10 04:20:00,72.0,71.5,30.06,West,273,0.0,0.0,98,0.14,,,0.73,dv,2013-07-10 08:20:00,
2013-07-10 04:25:00,71.9,71.4,30.06,West,273,0.0,0.0,98,0.14,,,0.73,dv,2013-07-10 08:25:00,
2013-07-10 04:30:00,71.9,71.4,30.06,West,273,0.0,0.0,98,0.14,,,0.73,dv,2013-07-10 08:30:00,
2013-07-10 04:40:00,71.9,71.4,30.06,West,273,0.0,0.0,98,0.02,,,0.73,dv,2013-07-10 08:40:00,
2013-07-10 04:45:00,72.0,71.5,30.07,West,273,0.0,0.0,98,0.01,,,0.73,dv,2013-07-10 08:45:00,
2013-07-10 04:50:00,71.9,71.4,30.06,West,273,0.0,0.0,98,0.00,,,0.73,dv,2013-07-10 08:50:00,
2013-07-10 04:55:00,71.9,71.4,30.06,West,273,0.0,0.0,98,0.00,,,0.73,dv,2013-07-10 08:55:00,
2013-07-10 05:00:00,71.8,71.3,30.06,West,273,0.0,0.0,98,0.00,,,0.73,dv,2013-07-10 09:00:00,
2013-07-10 05:05:00,71.9,71.4,30.07,West,273,0.0,0.0,98,0.00,,,0.73,dv,2013-07-10 09:05:00,
2013-07-10 05:10:00,71.8,71.6,30.06,West,273,0.0,0.0,99,0.00,,,0.73,dv,2013-07-10 09:10:00,
2013-07-10 05:15:00,71.8,71.3,30.07,West,273,0.0,0.0,98,0.00,,,0.73,dv,2013-07-10 09:15:00,
2013-07-10 05:20:00,71.8,71.3,30.07,West,273,0.0,0.0,98,0.00,,,0.73,dv,2013-07-10 09:20:00,
2013-07-10 05:25:00,71.8,71.3,30.06,West,273,0.0,0.0,98,0.00,,,0.73,dv,2013-07-10 09:25:00,
2013-07-10 05:30:00,71.9,71.4,30.06,West,273,0.0,0.0,98,0.00,,,0.73,dv,2013-07-10 09:30:00,
2013-07-10 05:35:00,71.9,71.4,30.06,West,273,0.0,0.0,98,0.00,,,0.73,dv,2013-07-10 09:35:00,
2013-07-10 05:40:00,71.8,71.6,30.06,West,273,0.0,0.0,99,0.00,,,0.73,dv,2013-07-10 09:40:00,
2013-07-10 05:45:00,71.8,71.6,30.06,West,273,0.0,0.0,99,0.00,,,0.73,dv,2013-07-10 09:45:00,
2013-07-10 05:50:00,71.8,71.6,30.06,West,273,0.0,0.0,99,0.00,,,0.73,dv,2013-07-10 09:50:00,
2013-07-10 05:55:00,71.8,71.6,30.06,West,273,0.0,0.0,99,0.00,,,0.73,dv,2013-07-10 09:55:00,
2013-07-10 06:00:00,71.9,71.7,30.06,West,273,0.0,0.0,99,0.00,,,0.73,dv,2013-07-10 10:00:00,
2013-07-10 06:05:00,71.9,71.7,30.06,West,273,0.0,0.0,99,0.00,,,0.73,dv,2013-07-10 10:05:00,
2013-07-10 06:10:00,71.7,71.5,30.06,West,273,0.0,0.0,99,0.00,,,0.73,dv,2013-07-10 10:10:00,
2013-07-10 06:15:00,71.8,71.6,30.06,West,273,0.0,0.0,99,0.00,,,0.73,dv,2013-07-10 10:15:00,
2013-07-10 06:20:00,71.9,71.7,30.07,West,273,0.0,0.0,99,0.00,,,0.73,dv,2013-07-10 10:20:00,
2013-07-10 06:25:00,71.9,71.9,30.07,West,273,0.0,0.0,100,0.00,,,0.73,dv,2013-07-10 10:25:00,
2013-07-10 06:30:00,71.8,71.8,30.07,West,273,0.0,0.0,100,0.00,,,0.73,dv,2013-07-10 10:30:00,
2013-07-10 06:35:00,71.7,71.7,30.07,West,274,0.0,0.0,100,0.00,,,0.73,dv,2013-07-10 10:35:00,
2013-07-10 06:40:00,71.8,71.6,30.07,West,273,0.0,0.0,99,0.00,,,0.73,dv,2013-07-10 10:40:00,
2013-07-10 06:45:00,71.7,71.7,30.06,West,273,0.0,0.0,100,0.00,,,0.73,dv,2013-07-10 10:45:00,
2013-07-10 06:50:00,71.7,71.5,30.07,West,273,0.0,0.0,99,0.00,,,0.73,dv,2013-07-10 10:50:00,
2013-07-10 06:55:00,71.5,71.3,30.07,West,273,0.0,0.0,99,0.00,,,0.73,dv,2013-07-10 10:55:00,
2013-07-10 07:00:00,71.5,71.5,30.07,West,273,0.0,0.0,100,0.00,,,0.73,dv,2013-07-10 11:00:00,
2013-07-10 07:05:00,71.6,71.4,30.07,West,273,0.0,0.0,99,0.00,,,0.73,dv,2013-07-10 11:05:00,
2013-07-10 07:10:00,71.6,71.4,30.07,West,273,0.0,0.0,99,0.00,,,0.73,dv,2013-07-10 11:10:00,
2013-07-10 07:15:00,71.5,71.3,30.08,West,273,0.0,0.0,99,0.00,,,0.73,dv,2013-07-10 11:15:00,
2013-07-10 07:20:00,71.5,71.3,30.07,West,273,0.0,0.0,99,0.00,,,0.73,dv,2013-07-10 11:20:00,
2013-07-10 07:25:00,71.4,71.2,30.07,West,274,0.0,0.0,99,0.00,,,0.73,dv,2013-07-10 11:25:00,
2013-07-10 07:30:00,71.5,71.5,30.07,West,274,0.0,0.0,100,0.00,,,0.73,dv,2013-07-10 11:30:00,
2013-07-10 07:35:00,71.6,71.4,30.07,West,273,0.0,0.0,99,0.00,,,0.73,dv,2013-07-10 11:35:00,
2013-07-10 07:40:00,71.5,71.3,30.07,West,273,0.0,0.0,99,0.00,,,0.73,dv,2013-07-10 11:40:00,
2013-07-10 07:45:00,71.6,71.4,30.07,West,273,0.0,0.0,99,0.00,,,0.73,dv,2013-07-10 11:45:00,
2013-07-10 07:50:00,71.7,71.5,30.06,West,273,0.0,0.0,99,0.00,,,0.73,dv,2013-07-10 11:50:00,
2013-07-10 07:55:00,71.7,71.7,30.07,West,274,0.0,0.0,100,0.00,,,0.73,dv,2013-07-10 11:55:00,
2013-07-10 08:00:00,71.8,71.8,30.07,West,273,0.0,0.0,100,0.00,,,0.73,dv,2013-07-10 12:00:00,
2013-07-10 08:05:00,71.9,71.9,30.07,West,273,0.0,0.0,100,0.00,,,0.73,dv,2013-07-10 12:05:00,
2013-07-10 08:10:00,72.1,72.1,30.07,West,273,0.0,0.0,100,0.00,,,0.73,dv,2013-07-10 12:10:00,
2013-07-10 08:15:00,72.1,72.1,30.07,West,273,0.0,0.0,100,0.00,,,0.73,dv,2013-07-10 12:15:00,
2013-07-10 08:20:00,72.0,72.0,30.07,West,273,0.0,0.0,100,0.00,,,0.73,dv,2013-07-10 12:20:00,
2013-07-10 08:25:00,72.2,72.2,30.07,West,273,0.0,0.0,100,0.00,,,0.73,dv,2013-07-10 12:25:00,
2013-07-10 08:30:00,72.2,72.2,30.07,West,273,0.0,0.0,100,0.00,,,0.73,dv,2013-07-10 12:30:00,
2013-07-10 08:35:00,72.2,72.2,30.07,West,273,0.0,0.0,100,0.00,,,0.73,dv,2013-07-10 12:35:00,
2013-07-10 08:40:00,72.3,72.3,30.07,West,273,0.0,0.0,100,0.00,,,0.73,dv,2013-07-10 12:40:00,
2013-07-10 08:45:00,72.3,72.3,30.07,West,274,0.0,0.0,100,0.00,,,0.73,dv,2013-07-10 12:45:00,
2013-07-10 08:50:00,72.5,48.6,30.07,West,273,0.0,0.0,33,0.00,,,0.73,dv,2013-07-10 12:50:00,
2013-07-10 08:55:00,72.5,72.5,30.07,West,273,0.0,0.0,100,0.00,,,0.73,dv,2013-07-10 12:55:00,
2013-07-10 09:00:00,72.6,61.1,30.07,West,273,0.0,0.0,60,0.00,,,0.73,dv,2013-07-10 13:00:00,
2013-07-10 09:10:00,72.8,72.8,30.08,West,273,0.0,0.0,100,0.00,,,0.73,dv,2013-07-10 13:10:00,
2013-07-10 09:15:00,72.9,63.8,30.08,West,273,0.0,0.0,67,0.00,,,0.73,dv,2013-07-10 13:15:00,
2013-07-10 09:20:00,72.9,72.9,30.08,West,274,0.0,0.0,100,0.00,,,0.73,dv,2013-07-10 13:20:00,
2013-07-10 09:25:00,73.1,73.1,30.08,West,273,0.0,0.0,100,0.00,,,0.73,dv,2013-07-10 13:25:00,
2013-07-10 09:30:00,73.3,73.3,30.08,West,273,0.0,0.0,100,0.00,,,0.73,dv,2013-07-10 13:30:00,
2013-07-10 09:35:00,73.4,73.4,30.08,West,273,0.0,0.0,100,0.00,,,0.73,dv,2013-07-10 13:35:00,
2013-07-10 09:40:00,73.6,73.6,30.07,West,273,0.0,0.0,100,0.00,,,0.73,dv,2013-07-10 13:40:00,
2013-07-10 09:45:00,73.7,73.7,30.07,West,273,0.0,0.0,100,0.00,,,0.73,dv,2013-07-10 13:45:00,
2013-07-10 09:50:00,74.0,74.0,30.07,West,273,0.0,0.0,100,0.00,,,0.73,dv,2013-07-10 13:50:00,
2013-07-10 09:55:00,74.1,74.1,30.07,West,273,0.0,0.0,100,0.00,,,0.73,dv,2013-07-10 13:55:00,
2013-07-10 10:00:00,74.3,74.3,30.07,West,273,0.0,0.0,100,0.00,,,0.73,dv,2013-07-10 14:00:00,
2013-07-10 10:05:00,74.4,74.4,30.07,West,273,0.0,0.0,100,0.00,,,0.73,dv,2013-07-10 14:05:00,
2013-07-10 10:10:00,74.4,74.4,30.07,West,273,0.0,0.0,100,0.00,,,0.73,dv,2013-07-10 14:10:00,
2013-07-10 10:15:00,74.8,74.8,30.07,West,273,0.0,0.0,100,0.00,,,0.73,dv,2013-07-10 14:15:00,
2013-07-10 10:20:00,75.4,75.4,30.07,West,273,0.0,0.0,100,0.00,,,0.73,dv,2013-07-10 14:20:00,
2013-07-10 10:25:00,76.2,76.2,30.07,West,273,0.0,0.0,100,0.00,,,0.73,dv,2013-07-10 14:25:00,
2013-07-10 10:30:00,76.7,76.7,30.07,West,273,0.0,0.0,100,0.00,,,0.73,dv,2013-07-10 14:30:00,
2013-07-10 10:35:00,77.0,77.0,30.07,West,273,0.0,0.0,100,0.00,,,0.73,dv,2013-07-10 14:35:00,
2013-07-10 10:40:00,77.0,77.0,30.07,West,273,0.0,0.0,100,0.00,,,0.73,dv,2013-07-10 14:40:00,
2013-07-10 10:45:00,76.8,76.8,30.07,West,273,0.0,0.0,100,0.00,,,0.73,dv,2013-07-10 14:45:00,
2013-07-10 10:50:00,76.7,76.7,30.07,West,273,0.0,0.0,100,0.00,,,0.73,dv,2013-07-10 14:50:00,
2013-07-10 10:55:00,76.8,76.8,30.08,West,273,0.0,0.0,100,0.00,,,0.73,dv,2013-07-10 14:55:00,
2013-07-10 11:00:00,76.8,76.8,30.07,West,273,0.0,0.0,100,0.00,,,0.73,dv,2013-07-10 15:00:00,
2013-07-10 11:05:00,76.8,76.8,30.07,West,273,0.0,0.0,100,0.00,,,0.73,dv,2013-07-10 15:05:00,
2013-07-10 11:10:00,76.5,76.5,30.07,West,273,0.0,0.0,100,0.00,,,0.73,dv,2013-07-10 15:10:00,
2013-07-10 11:20:00,76.6,64.8,30.07,West,273,0.0,0.0,60,0.00,,,0.73,dv,2013-07-10 15:20:00,
2013-07-10 11:30:00,76.9,76.9,30.06,West,273,0.0,0.0,100,0.00,,,0.73,dv,2013-07-10 15:30:00,
2013-07-10 11:35:00,77.1,77.1,30.07,West,273,0.0,0.0,100,0.00,,,0.73,dv,2013-07-10 15:35:00,
2013-07-10 11:40:00,77.0,76.8,30.06,West,273,0.0,0.0,99,0.00,,,0.73,dv,2013-07-10 15:40:00,
2013-07-10 11:50:00,77.2,76.5,30.06,West,273,0.0,0.0,97,0.00,,,0.73,dv,2013-07-10 15:50:00,
2013-07-10 11:55:00,77.5,76.8,30.06,West,273,0.0,0.0,97,0.00,,,0.73,dv,2013-07-10 15:55:00,
2013-07-10 12:00:00,77.6,76.6,30.06,West,273,0.0,0.0,96,0.00,,,0.73,dv,2013-07-10 16:00:00,
2013-07-10 12:05:00,77.9,76.4,30.06,West,273,0.0,0.0,94,0.00,,,0.73,dv,2013-07-10 16:05:00,
2013-07-10 12:10:00,78.0,76.5,30.06,West,273,0.0,0.0,94,0.00,,,0.73,dv,2013-07-10 16:10:00,
2013-07-10 12:15:00,78.4,76.7,30.06,West,273,0.0,0.0,93,0.00,,,0.73,dv,2013-07-10 16:15:00,
2013-07-10 12:20:00,78.6,76.3,30.06,West,273,0.0,0.0,91,0.00,,,0.73,dv,2013-07-10 16:20:00,
2013-07-10 12:25:00,78.7,76.4,30.05,West,273,0.0,0.0,91,0.00,,,0.73,dv,2013-07-10 16:25:00,
2013-07-10 12:30:00,78.5,75.7,30.05,West,273,0.0,0.0,89,0.00,,,0.73,dv,2013-07-10 16:30:00,
2013-07-10 12:35:00,78.7,76.2,30.04,West,273,0.0,0.0,90,0.00,,,0.73,dv,2013-07-10 16:35:00,
2013-07-10 12:40:00,78.7,75.6,30.04,West,273,0.0,0.0,88,0.00,,,0.73,dv,2013-07-10 16:40:00,
2013-07-10 12:50:00,78.8,76.3,30.04,West,273,0.0,0.0,90,0.00,,,0.73,dv,2013-07-10 16:50:00,
2013-07-10 12:55:00,79.1,76.6,30.03,West,273,1.6,1.6,90,0.00,,,0.73,dv,2013-07-10 16:55:00,
2013-07-10 13:00:00,79.4,76.9,30.03,West,273,1.6,1.6,90,0.00,,,0.73,dv,2013-07-10 17:00:00,
2013-07-10 13:05:00,79.7,76.9,30.03,West,273,0.0,0.0,89,0.00,,,0.73,dv,2013-07-10 17:05:00,
2013-07-10 13:10:00,79.8,76.5,30.02,West,273,0.0,0.0,87,0.00,,,0.73,dv,2013-07-10 17:10:00,
2013-07-10 13:15:00,80.2,76.3,30.01,West,273,0.0,0.0,85,0.00,,,0.73,dv,2013-07-10 17:15:00,
2013-07-10 13:20:00,80.6,75.8,30.01,WSW,249,0.0,0.0,82,0.00,,,0.73,dv,2013-07-10 17:20:00,
2013-07-10 13:30:00,81.4,76.3,30.01,WSW,249,1.6,1.6,81,0.00,,,0.73,dv,2013-07-10 17:30:00,
2013-07-10 13:35:00,81.8,76.4,30.01,WSW,239,0.0,0.0,80,0.00,,,0.73,dv,2013-07-10 17:35:00,
2013-07-10 13:40:00,82.0,76.9,30.01,WSW,239,0.0,0.0,81,0.00,,,0.73,dv,2013-07-10 17:40:00,
2013-07-10 13:45:00,82.2,76.2,30.01,WSW,239,1.6,1.6,78,0.00,,,0.73,dv,2013-07-10 17:45:00,
2013-07-10 13:50:00,82.6,75.9,30.00,WSW,239,3.2,3.2,76,0.00,,,0.73,dv,2013-07-10 17:50:00,
2013-07-10 13:55:00,82.9,76.2,30.01,WSW,239,0.0,0.0,76,0.00,,,0.73,dv,2013-07-10 17:55:00,
2013-07-10 14:00:00,83.2,76.2,30.01,WNW,292,1.6,1.6,75,0.00,,,0.73,dv,2013-07-10 18:00:00,
2013-07-10 14:05:00,83.3,77.2,30.00,WNW,293,0.0,0.0,78,0.00,,,0.73,dv,2013-07-10 18:05:00,
2013-07-10 14:10:00,83.1,76.4,30.01,WNW,293,0.0,0.0,76,0.00,,,0.73,dv,2013-07-10 18:10:00,
2013-07-10 14:15:00,82.7,76.0,30.01,West,263,4.8,4.8,76,0.00,,,0.73,dv,2013-07-10 18:15:00,
2013-07-10 14:20:00,81.9,73.7,30.00,South,174,4.8,4.8,71,0.00,,,0.73,dv,2013-07-10 18:20:00,
2013-07-10 14:25:00,81.2,72.7,30.00,SE,139,3.2,3.2,70,0.00,,,0.73,dv,2013-07-10 18:25:00,
2013-07-10 14:30:00,80.2,72.4,30.01,SSW,206,4.8,4.8,72,0.00,,,0.73,dv,2013-07-10 18:30:00,
2013-07-10 14:35:00,79.3,71.8,30.00,South,181,0.0,0.0,73,0.00,,,0.73,dv,2013-07-10 18:35:00,
2013-07-10 14:40:00,78.6,72.1,30.00,South,181,6.4,6.4,76,0.01,,,0.74,dv,2013-07-10 18:40:00,
2013-07-10 14:45:00,78.0,72.4,30.00,South,181,0.0,0.0,79,0.03,,,0.76,dv,2013-07-10 18:45:00,
2013-07-10 14:50:00,77.4,72.7,30.00,South,181,0.0,0.0,82,0.04,,,0.77,dv,2013-07-10 18:50:00,
2013-07-10 14:55:00,77.2,73.1,30.00,South,181,0.0,0.0,84,0.04,,,0.77,dv,2013-07-10 18:55:00,
2013-07-10 15:00:00,76.7,72.9,30.01,WNW,285,3.2,3.2,85,0.04,,,0.77,dv,2013-07-10 19:00:00,
2013-07-10 15:05:00,76.3,72.5,30.01,NW,314,4.8,4.8,85,0.04,,,0.77,dv,2013-07-10 19:05:00,
2013-07-10 15:10:00,75.8,72.3,30.00,WNW,300,4.8,4.8,86,0.04,,,0.77,dv,2013-07-10 19:10:00,
2013-07-10 15:20:00,75.3,72.3,29.99,WNW,300,0.0,0.0,88,0.04,,,0.77,dv,2013-07-10 19:20:00,
2013-07-10 15:25:00,75.4,72.7,30.00,West,279,4.8,4.8,89,0.04,,,0.77,dv,2013-07-10 19:25:00,
2013-07-10 15:30:00,75.2,72.5,30.00,WNW,295,3.2,3.2,89,0.04,,,0.77,dv,2013-07-10 19:30:00,
2013-07-10 15:35:00,75.2,72.7,29.99,West,276,4.8,4.8,90,0.04,,,0.77,dv,2013-07-10 19:35:00,
2013-07-10 15:40:00,75.1,72.6,29.98,NW,313,4.8,4.8,90,0.03,,,0.77,dv,2013-07-10 19:40:00,
2013-07-10 15:45:00,75.1,72.6,29.99,NW,313,3.2,3.2,90,0.01,,,0.77,dv,2013-07-10 19:45:00,
2013-07-10 15:50:00,75.0,72.3,29.99,NW,313,1.6,1.6,89,0.00,,,0.77,dv,2013-07-10 19:50:00,
2013-07-10 15:55:00,75.0,72.3,29.98,NW,313,1.6,1.6,89,0.00,,,0.77,dv,2013-07-10 19:55:00,
2013-07-10 16:00:00,74.9,72.4,29.98,NW,313,0.0,0.0,90,0.00,,,0.77,dv,2013-07-10 20:00:00,
2013-07-10 16:10:00,75.2,73.0,29.97,NW,313,0.0,0.0,91,0.00,,,0.77,dv,2013-07-10 20:10:00,
2013-07-10 16:15:00,75.3,73.1,29.97,NW,313,0.0,0.0,91,0.00,,,0.77,dv,2013-07-10 20:15:00,
2013-07-10 16:20:00,75.5,73.5,29.97,NW,313,0.0,0.0,92,0.00,,,0.77,dv,2013-07-10 20:20:00,
2013-07-10 16:25:00,75.5,73.3,29.97,NW,313,0.0,0.0,91,0.00,,,0.77,dv,2013-07-10 20:25:00,
2013-07-10 16:30:00,75.6,73.6,29.98,NW,313,0.0,0.0,92,0.00,,,0.77,dv,2013-07-10 20:30:00,
2013-07-10 16:35:00,75.8,74.1,29.96,NW,313,0.0,0.0,93,0.00,,,0.77,dv,2013-07-10 20:35:00,
2013-07-10 16:40:00,76.0,74.3,29.96,NW,313,0.0,0.0,93,0.00,,,0.77,dv,2013-07-10 20:40:00,
2013-07-10 16:45:00,76.0,74.0,29.96,NW,313,0.0,0.0,92,0.00,,,0.77,dv,2013-07-10 20:45:00,
2013-07-10 16:50:00,76.0,73.8,29.96,NW,313,0.0,0.0,91,0.00,,,0.77,dv,2013-07-10 20:50:00,
2013-07-10 16:55:00,76.0,73.8,29.96,NW,313,0.0,0.0,91,0.00,,,0.77,dv,2013-07-10 20:55:00,
2013-07-10 17:00:00,76.1,74.1,29.97,NW,313,0.0,0.0,92,0.00,,,0.77,dv,2013-07-10 21:00:00,
2013-07-10 17:05:00,76.1,73.9,29.96,NW,313,0.0,0.0,91,0.00,,,0.77,dv,2013-07-10 21:05:00,
2013-07-10 17:10:00,76.1,73.9,29.96,NW,313,0.0,0.0,91,0.00,,,0.77,dv,2013-07-10 21:10:00,
2013-07-10 17:15:00,76.3,74.6,29.96,NW,313,0.0,0.0,93,0.00,,,0.77,dv,2013-07-10 21:15:00,
2013-07-10 17:20:00,76.4,74.4,29.95,West,260,4.8,4.8,92,0.00,,,0.77,dv,2013-07-10 21:20:00,
2013-07-10 17:25:00,76.4,74.2,29.96,West,279,4.8,4.8,91,0.00,,,0.77,dv,2013-07-10 21:25:00,
2013-07-10 17:30:00,76.3,73.6,29.96,WNW,296,3.2,3.2,89,0.00,,,0.77,dv,2013-07-10 21:30:00,
2013-07-10 17:35:00,76.4,73.9,29.96,NNE,33,4.8,4.8,90,0.00,,,0.77,dv,2013-07-10 21:35:00,
2013-07-10 17:40:00,76.5,73.8,29.96,West,278,6.4,6.4,89,0.00,,,0.77,dv,2013-07-10 21:40:00,
2013-07-10 17:45:00,76.7,74.2,29.95,West,278,0.0,0.0,90,0.00,,,0.77,dv,2013-07-10 21:45:00,
2013-07-10 17:50:00,76.8,74.3,29.96,West,278,0.0,0.0,90,0.00,,,0.77,dv,2013-07-10 21:50:00,
2013-07-10 17:55:00,76.8,73.8,29.96,West,278,0.0,0.0,88,0.00,,,0.77,dv,2013-07-10 21:55:00,
2013-07-10 18:00:00,76.9,73.9,29.96,West,278,0.0,0.0,88,0.00,,,0.77,dv,2013-07-10 22:00:00,
2013-07-10 18:05:00,77.0,73.7,29.96,West,278,0.0,0.0,87,0.00,,,0.77,dv,2013-07-10 22:05:00,
2013-07-10 18:10:00,77.2,74.2,29.96,West,277,0.0,0.0,88,0.00,,,0.77,dv,2013-07-10 22:10:00,
2013-07-10 18:15:00,77.3,73.7,29.97,West,278,0.0,0.0,86,0.00,,,0.77,dv,2013-07-10 22:15:00,
2013-07-10 18:20:00,77.3,73.7,29.98,West,278,3.2,3.2,86,0.00,,,0.77,dv,2013-07-10 22:20:00,
2013-07-10 18:25:00,77.3,73.7,29.97,West,278,0.0,0.0,86,0.00,,,0.77,dv,2013-07-10 22:25:00,
2013-07-10 18:30:00,77.3,73.5,29.97,West,277,1.6,1.6,85,0.00,,,0.77,dv,2013-07-10 22:30:00,
2013-07-10 18:35:00,77.2,73.4,29.96,West,278,0.0,0.0,85,0.00,,,0.77,dv,2013-07-10 22:35:00,
2013-07-10 18:40:00,77.0,73.4,29.95,West,278,0.0,0.0,86,0.00,,,0.77,dv,2013-07-10 22:40:00,
2013-07-10 18:45:00,76.9,73.6,29.95,West,278,0.0,0.0,87,0.00,,,0.77,dv,2013-07-10 22:45:00,
2013-07-10 18:50:00,76.9,73.9,29.95,West,278,0.0,0.0,88,0.00,,,0.77,dv,2013-07-10 22:50:00,
2013-07-10 18:55:00,76.9,73.9,29.95,West,278,0.0,0.0,88,0.00,,,0.77,dv,2013-07-10 22:55:00,
2013-07-10 19:00:00,76.7,73.7,29.95,West,278,0.0,0.0,88,0.00,,,0.77,dv,2013-07-10 23:00:00,
2013-07-10 19:05:00,76.6,73.8,29.95,West,278,0.0,0.0,89,0.00,,,0.77,dv,2013-07-10 23:05:00,
2013-07-10 19:10:00,76.5,74.0,29.96,West,278,0.0,0.0,90,0.00,,,0.77,dv,2013-07-10 23:10:00,
2013-07-10 19:15:00,76.5,74.0,29.95,West,278,0.0,0.0,90,0.00,,,0.77,dv,2013-07-10 23:15:00,
2013-07-10 19:20:00,76.5,74.0,29.95,West,278,0.0,0.0,90,0.00,,,0.77,dv,2013-07-10 23:20:00,
2013-07-10 19:25:00,76.4,73.9,29.95,West,278,0.0,0.0,90,0.00,,,0.77,dv,2013-07-10 23:25:00,
2013-07-10 19:30:00,76.2,73.7,29.95,West,278,0.0,0.0,90,0.00,,,0.77,dv,2013-07-10 23:30:00,
2013-07-10 19:35:00,76.1,73.6,29.95,West,278,0.0,0.0,90,0.00,,,0.77,dv,2013-07-10 23:35:00,
2013-07-10 19:40:00,76.1,73.9,29.95,West,278,0.0,0.0,91,0.00,,,0.77,dv,2013-07-10 23:40:00,
2013-07-10 19:45:00,76.1,73.9,29.95,West,278,0.0,0.0,91,0.00,,,0.77,dv,2013-07-10 23:45:00,
2013-07-10 19:50:00,76.2,74.0,29.95,West,278,0.0,0.0,91,0.00,,,0.77,dv,2013-07-10 23:50:00,
2013-07-10 19:55:00,76.1,73.9,29.95,West,278,0.0,0.0,91,0.00,,,0.77,dv,2013-07-10 23:55:00,
2013-07-10 20:00:00,76.2,74.0,29.95,West,278,0.0,0.0,91,0.00,,,0.77,dv,2013-07-11 00:00:00,
2013-07-10 20:05:00,76.1,73.9,29.95,West,278,0.0,0.0,91,0.00,,,0.77,dv,2013-07-11 00:05:00,
2013-07-10 20:10:00,75.9,73.7,29.96,West,278,0.0,0.0,91,0.00,,,0.77,dv,2013-07-11 00:10:00,
2013-07-10 20:15:00,75.9,73.7,29.95,West,278,0.0,0.0,91,0.00,,,0.77,dv,2013-07-11 00:15:00,
2013-07-10 20:20:00,75.8,73.6,29.96,West,278,0.0,0.0,91,0.00,,,0.77,dv,2013-07-11 00:20:00,
2013-07-10 20:25:00,75.8,73.8,29.97,West,278,0.0,0.0,92,0.00,,,0.77,dv,2013-07-11 00:25:00,
2013-07-10 20:30:00,75.8,73.6,29.96,West,278,0.0,0.0,91,0.00,,,0.77,dv,2013-07-11 00:30:00,
2013-07-10 20:35:00,75.7,73.7,29.97,West,278,0.0,0.0,92,0.00,,,0.77,dv,2013-07-11 00:35:00,
2013-07-10 20:40:00,75.6,73.6,29.97,West,278,0.0,0.0,92,0.00,,,0.77,dv,2013-07-11 00:40:00,
2013-07-10 20:45:00,75.6,73.6,29.97,West,278,0.0,0.0,92,0.00,,,0.77,dv,2013-07-11 00:45:00,
2013-07-10 20:50:00,75.5,73.5,29.97,West,278,0.0,0.0,92,0.00,,,0.77,dv,2013-07-11 00:50:00,
2013-07-10 20:55:00,75.4,73.4,29.97,West,278,0.0,0.0,92,0.00,,,0.77,dv,2013-07-11 00:55:00,
2013-07-10 21:00:00,75.4,73.4,29.97,West,278,0.0,0.0,92,0.00,,,0.77,dv,2013-07-11 01:00:00,
2013-07-10 21:05:00,75.3,73.6,29.96,West,278,0.0,0.0,93,0.00,,,0.77,dv,2013-07-11 01:05:00,
2013-07-10 21:10:00,75.2,73.5,29.96,West,278,0.0,0.0,93,0.00,,,0.77,dv,2013-07-11 01:10:00,
2013-07-10 21:15:00,75.2,73.5,29.97,West,278,0.0,0.0,93,0.00,,,0.77,dv,2013-07-11 01:15:00,
2013-07-10 21:20:00,75.1,73.4,29.97,West,278,0.0,0.0,93,0.00,,,0.77,dv,2013-07-11 01:20:00,
2013-07-10 21:25:00,75.0,73.0,29.97,West,278,0.0,0.0,92,0.00,,,0.77,dv,2013-07-11 01:25:00,
2013-07-10 21:30:00,74.8,73.1,29.97,West,278,0.0,0.0,93,0.00,,,0.77,dv,2013-07-11 01:30:00,
2013-07-10 21:35:00,74.8,73.1,29.97,West,278,0.0,0.0,93,0.00,,,0.77,dv,2013-07-11 01:35:00,
2013-07-10 21:40:00,74.7,73.0,29.97,West,278,0.0,0.0,93,0.00,,,0.77,dv,2013-07-11 01:40:00,
2013-07-10 21:45:00,74.7,73.0,29.97,West,278,0.0,0.0,93,0.00,,,0.77,dv,2013-07-11 01:45:00,
2013-07-10 21:50:00,74.8,73.4,29.98,West,278,0.0,0.0,94,0.00,,,0.77,dv,2013-07-11 01:50:00,
2013-07-10 21:55:00,74.7,73.0,29.98,West,278,0.0,0.0,93,0.00,,,0.77,dv,2013-07-11 01:55:00,
2013-07-10 22:00:00,74.7,73.0,29.97,West,278,0.0,0.0,93,0.00,,,0.77,dv,2013-07-11 02:00:00,
2013-07-10 22:05:00,74.6,72.9,29.98,West,278,0.0,0.0,93,0.00,,,0.77,dv,2013-07-11 02:05:00,
2013-07-10 22:10:00,74.6,72.9,29.98,West,277,0.0,0.0,93,0.00,,,0.77,dv,2013-07-11 02:10:00,
2013-07-10 22:15:00,74.7,73.0,29.97,West,278,0.0,0.0,93,0.00,,,0.77,dv,2013-07-11 02:15:00,
2013-07-10 22:20:00,74.6,72.9,29.97,West,278,0.0,0.0,93,0.00,,,0.77,dv,2013-07-11 02:20:00,
2013-07-10 22:25:00,74.5,72.8,29.97,West,278,0.0,0.0,93,0.00,,,0.77,dv,2013-07-11 02:25:00,
2013-07-10 22:30:00,74.6,72.9,29.97,West,278,0.0,0.0,93,0.00,,,0.77,dv,2013-07-11 02:30:00,
2013-07-10 22:35:00,74.4,73.0,29.97,West,278,0.0,0.0,94,0.00,,,0.77,dv,2013-07-11 02:35:00,
2013-07-10 22:40:00,74.3,72.9,29.97,West,278,0.0,0.0,94,0.00,,,0.77,dv,2013-07-11 02:40:00,
2013-07-10 22:45:00,74.3,72.9,29.97,West,278,0.0,0.0,94,0.00,,,0.77,dv,2013-07-11 02:45:00,
2013-07-10 22:50:00,74.2,72.8,29.97,West,278,0.0,0.0,94,0.00,,,0.77,dv,2013-07-11 02:50:00,
2013-07-10 22:55:00,74.2,72.5,29.97,West,278,0.0,0.0,93,0.00,,,0.77,dv,2013-07-11 02:55:00,
2013-07-10 23:00:00,74.1,72.4,29.97,West,278,0.0,0.0,93,0.00,,,0.77,dv,2013-07-11 03:00:00,
2013-07-10 23:05:00,73.9,72.2,29.96,West,278,0.0,0.0,93,0.00,,,0.77,dv,2013-07-11 03:05:00,
2013-07-10 23:10:00,73.8,72.1,29.96,West,278,0.0,0.0,93,0.00,,,0.77,dv,2013-07-11 03:10:00,
2013-07-10 23:15:00,73.7,72.0,29.96,West,278,0.0,0.0,93,0.00,,,0.77,dv,2013-07-11 03:15:00,
2013-07-10 23:20:00,73.4,71.7,29.95,West,278,0.0,0.0,93,0.00,,,0.77,dv,2013-07-11 03:20:00,
2013-07-10 23:25:00,73.3,71.6,29.94,West,278,0.0,0.0,93,0.00,,,0.77,dv,2013-07-11 03:25:00,
2013-07-10 23:30:00,73.2,71.5,29.95,West,278,0.0,0.0,93,0.00,,,0.77,dv,2013-07-11 03:30:00,
2013-07-10 23:35:00,73.1,71.7,29.94,West,278,0.0,0.0,94,0.00,,,0.77,dv,2013-07-11 03:35:00,
2013-07-10 23:40:00,73.0,71.6,29.95,West,278,0.0,0.0,94,0.00,,,0.77,dv,2013-07-11 03:40:00,
2013-07-10 23:45:00,72.9,71.5,29.95,West,278,0.0,0.0,94,0.00,,,0.77,dv,2013-07-11 03:45:00,
2013-07-10 23:50:00,72.9,71.5,29.95,West,278,0.0,0.0,94,0.00,,,0.77,dv,2013-07-11 03:50:00,
2013-07-10 23:55:00,72.7,71.3,29.95,West,278,0.0,0.0,94,0.00,,,0.77,dv,2013-07-11 03:55:00,